sensor_id;sensor_type;location;lat;lon;timestamp;P1;durP1;ratioP1;P2;durP2;ratioP2
15946;SDS011;8072;52.554;7.966;2023-03-16T00:01:06;8.13;;;3.80;;
15946;SDS011;8072;52.554;7.966;2023-03-16T00:03:32;8.37;;;3.80;;
15946;SDS011;8072;52.554;7.966;2023-03-16T00:05:58;4.57;;;3.20;;
15946;SDS011;8072;52.554;7.966;2023-03-16T00:08:24;5.27;;;3.27;;
15946;SDS011;8072;52.554;7.966;2023-03-16T00:10:51;5.10;;;3.40;;
15946;SDS011;8072;52.554;7.966;2023-03-16T00:13:18;7.20;;;3.73;;
15946;SDS011;8072;52.554;7.966;2023-03-16T00:15:51;5.57;;;3.27;;
15946;SDS011;8072;52.554;7.966;2023-03-16T00:18:18;6.40;;;3.33;;
15946;SDS011;8072;52.554;7.966;2023-03-16T00:20:48;6.07;;;3.20;;
15946;SDS011;8072;52.554;7.966;2023-03-16T00:23:16;4.60;;;3.23;;
15946;SDS011;8072;52.554;7.966;2023-03-16T00:25:42;5.30;;;3.20;;
15946;SDS011;8072;52.554;7.966;2023-03-16T00:28:07;7.23;;;3.03;;
15946;SDS011;8072;52.554;7.966;2023-03-16T00:30:33;4.33;;;2.83;;
15946;SDS011;8072;52.554;7.966;2023-03-16T00:32:59;5.40;;;3.03;;
15946;SDS011;8072;52.554;7.966;2023-03-16T00:35:26;3.57;;;2.73;;
15946;SDS011;8072;52.554;7.966;2023-03-16T00:37:52;6.23;;;3.00;;
15946;SDS011;8072;52.554;7.966;2023-03-16T00:40:21;6.50;;;3.27;;
15946;SDS011;8072;52.554;7.966;2023-03-16T00:42:48;5.07;;;3.40;;
15946;SDS011;8072;52.554;7.966;2023-03-16T00:45:14;5.87;;;3.07;;
15946;SDS011;8072;52.554;7.966;2023-03-16T00:47:39;5.13;;;3.00;;
15946;SDS011;8072;52.554;7.966;2023-03-16T00:50:06;5.57;;;2.93;;
15946;SDS011;8072;52.554;7.966;2023-03-16T00:52:32;5.60;;;3.30;;
15946;SDS011;8072;52.554;7.966;2023-03-16T00:54:59;5.60;;;3.10;;
15946;SDS011;8072;52.554;7.966;2023-03-16T00:57:27;5.37;;;3.30;;
15946;SDS011;8072;52.554;7.966;2023-03-16T00:59:54;10.67;;;3.67;;
15946;SDS011;8072;52.554;7.966;2023-03-16T01:02:20;6.70;;;3.57;;
15946;SDS011;8072;52.554;7.966;2023-03-16T01:04:50;22.70;;;7.53;;
15946;SDS011;8072;52.554;7.966;2023-03-16T01:07:18;7.23;;;4.47;;
15946;SDS011;8072;52.554;7.966;2023-03-16T01:09:46;6.73;;;3.80;;
15946;SDS011;8072;52.554;7.966;2023-03-16T01:12:15;7.43;;;3.60;;
15946;SDS011;8072;52.554;7.966;2023-03-16T01:14:43;6.10;;;3.70;;
15946;SDS011;8072;52.554;7.966;2023-03-16T01:17:12;6.87;;;3.30;;
15946;SDS011;8072;52.554;7.966;2023-03-16T01:19:40;4.77;;;3.40;;
15946;SDS011;8072;52.554;7.966;2023-03-16T01:22:07;7.57;;;3.73;;
15946;SDS011;8072;52.554;7.966;2023-03-16T01:24:33;8.10;;;3.30;;
15946;SDS011;8072;52.554;7.966;2023-03-16T01:26:59;6.50;;;4.13;;
15946;SDS011;8072;52.554;7.966;2023-03-16T01:29:26;5.73;;;3.63;;
15946;SDS011;8072;52.554;7.966;2023-03-16T01:31:52;8.23;;;4.03;;
15946;SDS011;8072;52.554;7.966;2023-03-16T01:34:18;10.07;;;3.83;;
15946;SDS011;8072;52.554;7.966;2023-03-16T01:36:47;7.77;;;4.30;;
15946;SDS011;8072;52.554;7.966;2023-03-16T01:39:14;6.87;;;3.50;;
15946;SDS011;8072;52.554;7.966;2023-03-16T01:41:40;6.77;;;3.90;;
15946;SDS011;8072;52.554;7.966;2023-03-16T01:44:14;9.03;;;3.73;;
15946;SDS011;8072;52.554;7.966;2023-03-16T01:46:42;8.60;;;3.73;;
15946;SDS011;8072;52.554;7.966;2023-03-16T01:57:29;6.53;;;3.63;;
15946;SDS011;8072;52.554;7.966;2023-03-16T01:59:43;5.60;;;3.80;;
15946;SDS011;8072;52.554;7.966;2023-03-16T02:02:15;10.67;;;3.30;;
15946;SDS011;8072;52.554;7.966;2023-03-16T02:07:29;8.80;;;3.90;;
15946;SDS011;8072;52.554;7.966;2023-03-16T02:09:59;5.30;;;3.67;;
15946;SDS011;8072;52.554;7.966;2023-03-16T02:12:27;6.53;;;3.27;;
15946;SDS011;8072;52.554;7.966;2023-03-16T02:14:53;6.53;;;3.50;;
15946;SDS011;8072;52.554;7.966;2023-03-16T02:17:23;6.03;;;3.70;;
15946;SDS011;8072;52.554;7.966;2023-03-16T02:20:00;9.43;;;3.63;;
15946;SDS011;8072;52.554;7.966;2023-03-16T02:22:49;10.17;;;3.80;;
15946;SDS011;8072;52.554;7.966;2023-03-16T02:25:18;4.70;;;3.87;;
15946;SDS011;8072;52.554;7.966;2023-03-16T02:27:52;6.90;;;3.90;;
15946;SDS011;8072;52.554;7.966;2023-03-16T02:30:28;5.83;;;4.20;;
15946;SDS011;8072;52.554;7.966;2023-03-16T02:32:54;5.20;;;3.50;;
15946;SDS011;8072;52.554;7.966;2023-03-16T02:35:21;4.80;;;3.30;;
15946;SDS011;8072;52.554;7.966;2023-03-16T02:37:47;8.10;;;4.00;;
15946;SDS011;8072;52.554;7.966;2023-03-16T02:40:18;9.70;;;4.10;;
15946;SDS011;8072;52.554;7.966;2023-03-16T02:43:03;8.30;;;4.17;;
15946;SDS011;8072;52.554;7.966;2023-03-16T02:45:34;5.00;;;3.70;;
15946;SDS011;8072;52.554;7.966;2023-03-16T02:48:04;7.80;;;4.00;;
15946;SDS011;8072;52.554;7.966;2023-03-16T02:50:43;7.70;;;3.70;;
15946;SDS011;8072;52.554;7.966;2023-03-16T02:53:13;6.27;;;3.77;;
15946;SDS011;8072;52.554;7.966;2023-03-16T02:55:39;8.87;;;4.10;;
15946;SDS011;8072;52.554;7.966;2023-03-16T02:58:05;10.53;;;3.93;;
15946;SDS011;8072;52.554;7.966;2023-03-16T03:00:31;5.57;;;4.00;;
15946;SDS011;8072;52.554;7.966;2023-03-16T03:02:57;7.83;;;3.90;;
15946;SDS011;8072;52.554;7.966;2023-03-16T03:05:23;6.17;;;3.87;;
15946;SDS011;8072;52.554;7.966;2023-03-16T03:07:49;7.47;;;3.87;;
15946;SDS011;8072;52.554;7.966;2023-03-16T03:10:15;8.23;;;4.20;;
15946;SDS011;8072;52.554;7.966;2023-03-16T03:12:41;5.63;;;4.37;;
15946;SDS011;8072;52.554;7.966;2023-03-16T03:15:08;8.70;;;4.27;;
15946;SDS011;8072;52.554;7.966;2023-03-16T03:17:34;6.83;;;4.23;;
15946;SDS011;8072;52.554;7.966;2023-03-16T03:20:01;6.63;;;4.43;;
15946;SDS011;8072;52.554;7.966;2023-03-16T03:22:37;10.00;;;4.03;;
15946;SDS011;8072;52.554;7.966;2023-03-16T03:25:04;9.90;;;3.80;;
15946;SDS011;8072;52.554;7.966;2023-03-16T03:27:31;6.83;;;3.97;;
15946;SDS011;8072;52.554;7.966;2023-03-16T03:29:57;7.00;;;4.30;;
15946;SDS011;8072;52.554;7.966;2023-03-16T03:32:23;5.97;;;3.77;;
15946;SDS011;8072;52.554;7.966;2023-03-16T03:34:52;7.97;;;4.40;;
15946;SDS011;8072;52.554;7.966;2023-03-16T03:37:17;8.57;;;4.03;;
15946;SDS011;8072;52.554;7.966;2023-03-16T03:39:43;7.83;;;4.07;;
15946;SDS011;8072;52.554;7.966;2023-03-16T03:42:10;5.97;;;3.97;;
15946;SDS011;8072;52.554;7.966;2023-03-16T03:44:36;8.43;;;4.40;;
15946;SDS011;8072;52.554;7.966;2023-03-16T03:47:02;6.33;;;4.30;;
15946;SDS011;8072;52.554;7.966;2023-03-16T03:49:29;6.23;;;4.07;;
15946;SDS011;8072;52.554;7.966;2023-03-16T03:51:55;8.50;;;4.10;;
15946;SDS011;8072;52.554;7.966;2023-03-16T03:54:23;7.73;;;3.80;;
15946;SDS011;8072;52.554;7.966;2023-03-16T03:56:52;12.50;;;6.20;;
15946;SDS011;8072;52.554;7.966;2023-03-16T03:59:18;8.93;;;4.37;;
15946;SDS011;8072;52.554;7.966;2023-03-16T04:01:44;6.10;;;4.10;;
15946;SDS011;8072;52.554;7.966;2023-03-16T04:04:10;6.23;;;3.70;;
15946;SDS011;8072;52.554;7.966;2023-03-16T04:06:36;7.67;;;4.10;;
15946;SDS011;8072;52.554;7.966;2023-03-16T04:09:02;5.03;;;3.97;;
15946;SDS011;8072;52.554;7.966;2023-03-16T04:11:29;4.80;;;3.80;;
15946;SDS011;8072;52.554;7.966;2023-03-16T04:13:55;6.90;;;3.90;;
15946;SDS011;8072;52.554;7.966;2023-03-16T04:16:21;5.63;;;3.23;;
15946;SDS011;8072;52.554;7.966;2023-03-16T04:18:46;7.40;;;3.50;;
15946;SDS011;8072;52.554;7.966;2023-03-16T04:21:13;6.77;;;3.43;;
15946;SDS011;8072;52.554;7.966;2023-03-16T04:23:41;6.33;;;3.77;;
15946;SDS011;8072;52.554;7.966;2023-03-16T04:26:07;7.43;;;3.77;;
15946;SDS011;8072;52.554;7.966;2023-03-16T04:28:33;7.43;;;3.60;;
15946;SDS011;8072;52.554;7.966;2023-03-16T04:31:06;5.17;;;3.63;;
15946;SDS011;8072;52.554;7.966;2023-03-16T04:33:33;5.67;;;3.30;;
15946;SDS011;8072;52.554;7.966;2023-03-16T04:36:00;8.50;;;3.43;;
15946;SDS011;8072;52.554;7.966;2023-03-16T04:38:27;4.50;;;3.30;;
15946;SDS011;8072;52.554;7.966;2023-03-16T04:40:54;5.20;;;3.27;;
15946;SDS011;8072;52.554;7.966;2023-03-16T04:43:20;6.83;;;3.67;;
15946;SDS011;8072;52.554;7.966;2023-03-16T04:45:46;6.97;;;4.40;;
15946;SDS011;8072;52.554;7.966;2023-03-16T04:48:12;6.00;;;3.70;;
15946;SDS011;8072;52.554;7.966;2023-03-16T04:50:38;7.50;;;3.17;;
15946;SDS011;8072;52.554;7.966;2023-03-16T04:53:04;5.67;;;3.60;;
15946;SDS011;8072;52.554;7.966;2023-03-16T04:55:30;5.10;;;3.13;;
15946;SDS011;8072;52.554;7.966;2023-03-16T04:57:56;5.70;;;3.10;;
15946;SDS011;8072;52.554;7.966;2023-03-16T05:00:22;5.67;;;3.17;;
15946;SDS011;8072;52.554;7.966;2023-03-16T05:02:49;5.97;;;3.17;;
15946;SDS011;8072;52.554;7.966;2023-03-16T05:05:19;5.57;;;2.97;;
15946;SDS011;8072;52.554;7.966;2023-03-16T05:07:46;4.47;;;3.20;;
15946;SDS011;8072;52.554;7.966;2023-03-16T05:10:15;8.17;;;3.17;;
15946;SDS011;8072;52.554;7.966;2023-03-16T05:12:45;5.83;;;2.80;;
15946;SDS011;8072;52.554;7.966;2023-03-16T05:15:11;6.23;;;3.10;;
15946;SDS011;8072;52.554;7.966;2023-03-16T05:17:38;7.73;;;3.10;;
15946;SDS011;8072;52.554;7.966;2023-03-16T05:20:06;5.47;;;2.83;;
15946;SDS011;8072;52.554;7.966;2023-03-16T05:22:36;4.30;;;2.63;;
15946;SDS011;8072;52.554;7.966;2023-03-16T05:25:04;3.93;;;2.63;;
15946;SDS011;8072;52.554;7.966;2023-03-16T05:27:30;5.60;;;2.83;;
15946;SDS011;8072;52.554;7.966;2023-03-16T05:29:55;3.53;;;2.30;;
15946;SDS011;8072;52.554;7.966;2023-03-16T05:32:21;7.17;;;2.90;;
15946;SDS011;8072;52.554;7.966;2023-03-16T05:34:48;10.73;;;2.93;;
15946;SDS011;8072;52.554;7.966;2023-03-16T05:37:14;6.60;;;2.70;;
15946;SDS011;8072;52.554;7.966;2023-03-16T05:39:39;4.03;;;2.30;;
15946;SDS011;8072;52.554;7.966;2023-03-16T05:42:05;6.17;;;2.60;;
15946;SDS011;8072;52.554;7.966;2023-03-16T05:44:31;11.53;;;3.03;;
15946;SDS011;8072;52.554;7.966;2023-03-16T05:46:57;5.17;;;2.63;;
15946;SDS011;8072;52.554;7.966;2023-03-16T05:49:23;5.50;;;2.80;;
15946;SDS011;8072;52.554;7.966;2023-03-16T05:51:49;4.90;;;2.77;;
15946;SDS011;8072;52.554;7.966;2023-03-16T05:54:15;6.17;;;2.60;;
15946;SDS011;8072;52.554;7.966;2023-03-16T05:56:41;5.00;;;3.43;;
15946;SDS011;8072;52.554;7.966;2023-03-16T05:59:07;4.00;;;2.63;;
15946;SDS011;8072;52.554;7.966;2023-03-16T06:01:32;6.17;;;2.93;;
15946;SDS011;8072;52.554;7.966;2023-03-16T06:03:58;5.33;;;2.83;;
15946;SDS011;8072;52.554;7.966;2023-03-16T06:06:26;5.87;;;2.57;;
15946;SDS011;8072;52.554;7.966;2023-03-16T06:08:53;5.23;;;2.93;;
15946;SDS011;8072;52.554;7.966;2023-03-16T06:11:18;8.63;;;3.00;;
15946;SDS011;8072;52.554;7.966;2023-03-16T06:13:44;4.80;;;2.83;;
15946;SDS011;8072;52.554;7.966;2023-03-16T06:16:10;9.97;;;3.13;;
15946;SDS011;8072;52.554;7.966;2023-03-16T06:18:38;4.13;;;2.70;;
15946;SDS011;8072;52.554;7.966;2023-03-16T06:21:05;6.73;;;3.13;;
15946;SDS011;8072;52.554;7.966;2023-03-16T06:23:31;5.20;;;2.93;;
15946;SDS011;8072;52.554;7.966;2023-03-16T06:25:58;6.50;;;2.83;;
15946;SDS011;8072;52.554;7.966;2023-03-16T06:28:24;5.57;;;2.70;;
15946;SDS011;8072;52.554;7.966;2023-03-16T06:30:54;4.13;;;2.67;;
15946;SDS011;8072;52.554;7.966;2023-03-16T06:33:21;5.67;;;3.17;;
15946;SDS011;8072;52.554;7.966;2023-03-16T06:35:48;4.80;;;2.47;;
15946;SDS011;8072;52.554;7.966;2023-03-16T06:38:14;5.27;;;2.80;;
15946;SDS011;8072;52.554;7.966;2023-03-16T06:40:40;5.27;;;3.03;;
15946;SDS011;8072;52.554;7.966;2023-03-16T06:43:06;5.30;;;2.63;;
15946;SDS011;8072;52.554;7.966;2023-03-16T06:45:32;4.57;;;2.57;;
15946;SDS011;8072;52.554;7.966;2023-03-16T06:47:58;5.10;;;2.90;;
15946;SDS011;8072;52.554;7.966;2023-03-16T06:50:23;5.00;;;2.93;;
15946;SDS011;8072;52.554;7.966;2023-03-16T06:52:49;4.90;;;3.20;;
15946;SDS011;8072;52.554;7.966;2023-03-16T06:55:15;5.23;;;2.73;;
15946;SDS011;8072;52.554;7.966;2023-03-16T06:57:41;6.87;;;2.70;;
15946;SDS011;8072;52.554;7.966;2023-03-16T07:00:11;5.67;;;2.60;;
15946;SDS011;8072;52.554;7.966;2023-03-16T07:02:39;3.37;;;2.33;;
15946;SDS011;8072;52.554;7.966;2023-03-16T07:05:06;5.57;;;2.80;;
15946;SDS011;8072;52.554;7.966;2023-03-16T07:07:35;4.83;;;2.90;;
15946;SDS011;8072;52.554;7.966;2023-03-16T07:10:01;4.20;;;2.67;;
15946;SDS011;8072;52.554;7.966;2023-03-16T07:12:26;4.23;;;3.20;;
15946;SDS011;8072;52.554;7.966;2023-03-16T07:14:52;4.83;;;3.03;;
15946;SDS011;8072;52.554;7.966;2023-03-16T07:17:18;3.90;;;2.73;;
15946;SDS011;8072;52.554;7.966;2023-03-16T07:19:44;4.93;;;2.70;;
15946;SDS011;8072;52.554;7.966;2023-03-16T07:22:09;5.40;;;2.90;;
15946;SDS011;8072;52.554;7.966;2023-03-16T07:24:36;7.23;;;2.50;;
15946;SDS011;8072;52.554;7.966;2023-03-16T07:27:02;3.93;;;2.60;;
15946;SDS011;8072;52.554;7.966;2023-03-16T07:29:28;4.57;;;2.87;;
15946;SDS011;8072;52.554;7.966;2023-03-16T07:31:53;3.00;;;2.23;;
15946;SDS011;8072;52.554;7.966;2023-03-16T07:34:19;4.17;;;2.77;;
15946;SDS011;8072;52.554;7.966;2023-03-16T07:36:45;6.17;;;2.73;;
15946;SDS011;8072;52.554;7.966;2023-03-16T07:39:13;4.87;;;2.83;;
15946;SDS011;8072;52.554;7.966;2023-03-16T07:41:41;4.47;;;2.47;;
15946;SDS011;8072;52.554;7.966;2023-03-16T07:44:08;5.27;;;2.90;;
15946;SDS011;8072;52.554;7.966;2023-03-16T07:46:35;5.87;;;2.90;;
15946;SDS011;8072;52.554;7.966;2023-03-16T07:49:01;5.80;;;2.33;;
15946;SDS011;8072;52.554;7.966;2023-03-16T07:51:27;5.40;;;2.40;;
15946;SDS011;8072;52.554;7.966;2023-03-16T07:53:52;7.00;;;2.60;;
15946;SDS011;8072;52.554;7.966;2023-03-16T07:56:18;4.67;;;2.80;;
15946;SDS011;8072;52.554;7.966;2023-03-16T07:58:45;5.50;;;2.40;;
15946;SDS011;8072;52.554;7.966;2023-03-16T08:01:11;6.50;;;2.60;;
15946;SDS011;8072;52.554;7.966;2023-03-16T08:03:37;3.90;;;2.40;;
15946;SDS011;8072;52.554;7.966;2023-03-16T08:06:03;5.53;;;2.60;;
15946;SDS011;8072;52.554;7.966;2023-03-16T08:08:29;3.80;;;2.17;;
15946;SDS011;8072;52.554;7.966;2023-03-16T08:10:56;3.63;;;2.30;;
15946;SDS011;8072;52.554;7.966;2023-03-16T08:13:22;3.33;;;2.30;;
15946;SDS011;8072;52.554;7.966;2023-03-16T08:15:48;4.20;;;2.70;;
15946;SDS011;8072;52.554;7.966;2023-03-16T08:18:23;5.97;;;2.37;;
15946;SDS011;8072;52.554;7.966;2023-03-16T08:20:50;3.77;;;2.70;;
15946;SDS011;8072;52.554;7.966;2023-03-16T08:23:16;5.20;;;2.60;;
15946;SDS011;8072;52.554;7.966;2023-03-16T08:25:42;4.33;;;2.70;;
15946;SDS011;8072;52.554;7.966;2023-03-16T08:28:08;4.30;;;2.30;;
15946;SDS011;8072;52.554;7.966;2023-03-16T08:30:35;4.83;;;2.70;;
15946;SDS011;8072;52.554;7.966;2023-03-16T08:33:00;5.47;;;2.47;;
15946;SDS011;8072;52.554;7.966;2023-03-16T08:35:27;5.37;;;2.40;;
15946;SDS011;8072;52.554;7.966;2023-03-16T08:37:54;4.17;;;2.67;;
15946;SDS011;8072;52.554;7.966;2023-03-16T08:40:20;4.97;;;2.47;;
15946;SDS011;8072;52.554;7.966;2023-03-16T08:42:47;4.30;;;2.73;;
15946;SDS011;8072;52.554;7.966;2023-03-16T08:45:16;4.73;;;2.90;;
15946;SDS011;8072;52.554;7.966;2023-03-16T08:47:43;7.03;;;3.47;;
15946;SDS011;8072;52.554;7.966;2023-03-16T08:50:10;6.47;;;2.70;;
15946;SDS011;8072;52.554;7.966;2023-03-16T08:52:40;4.60;;;2.40;;
15946;SDS011;8072;52.554;7.966;2023-03-16T08:55:07;4.53;;;2.67;;
15946;SDS011;8072;52.554;7.966;2023-03-16T08:57:35;4.00;;;2.57;;
15946;SDS011;8072;52.554;7.966;2023-03-16T09:00:02;3.13;;;2.50;;
15946;SDS011;8072;52.554;7.966;2023-03-16T09:02:42;3.93;;;2.60;;
15946;SDS011;8072;52.554;7.966;2023-03-16T09:05:09;5.13;;;2.53;;
15946;SDS011;8072;52.554;7.966;2023-03-16T09:07:36;4.23;;;2.80;;
15946;SDS011;8072;52.554;7.966;2023-03-16T09:10:04;5.27;;;2.80;;
15946;SDS011;8072;52.554;7.966;2023-03-16T09:12:31;10.40;;;2.97;;
15946;SDS011;8072;52.554;7.966;2023-03-16T09:15:00;6.47;;;3.07;;
15946;SDS011;8072;52.554;7.966;2023-03-16T09:17:26;6.37;;;2.83;;
15946;SDS011;8072;52.554;7.966;2023-03-16T09:19:52;5.57;;;2.80;;
15946;SDS011;8072;52.554;7.966;2023-03-16T09:22:19;8.00;;;3.07;;
15946;SDS011;8072;52.554;7.966;2023-03-16T09:24:46;7.83;;;2.90;;
15946;SDS011;8072;52.554;7.966;2023-03-16T09:27:12;5.30;;;2.40;;
15946;SDS011;8072;52.554;7.966;2023-03-16T09:29:39;6.33;;;2.80;;
15946;SDS011;8072;52.554;7.966;2023-03-16T09:32:06;3.73;;;2.77;;
15946;SDS011;8072;52.554;7.966;2023-03-16T09:34:33;4.03;;;2.80;;
15946;SDS011;8072;52.554;7.966;2023-03-16T09:36:59;6.30;;;3.13;;
15946;SDS011;8072;52.554;7.966;2023-03-16T09:39:25;4.70;;;2.70;;
15946;SDS011;8072;52.554;7.966;2023-03-16T09:41:56;4.10;;;3.23;;
15946;SDS011;8072;52.554;7.966;2023-03-16T09:47:17;5.13;;;3.10;;
15946;SDS011;8072;52.554;7.966;2023-03-16T09:49:54;8.63;;;2.77;;
15946;SDS011;8072;52.554;7.966;2023-03-16T10:00:40;4.70;;;2.70;;
15946;SDS011;8072;52.554;7.966;2023-03-16T10:03:58;6.57;;;2.90;;
15946;SDS011;8072;52.554;7.966;2023-03-16T10:06:47;4.33;;;3.17;;
15946;SDS011;8072;52.554;7.966;2023-03-16T10:09:37;4.53;;;3.03;;
15946;SDS011;8072;52.554;7.966;2023-03-16T10:12:11;8.03;;;4.00;;
15946;SDS011;8072;52.554;7.966;2023-03-16T10:14:41;6.47;;;3.10;;
15946;SDS011;8072;52.554;7.966;2023-03-16T10:17:29;4.43;;;2.63;;
15946;SDS011;8072;52.554;7.966;2023-03-16T10:20:04;4.00;;;2.80;;
15946;SDS011;8072;52.554;7.966;2023-03-16T10:22:37;4.93;;;2.87;;
15946;SDS011;8072;52.554;7.966;2023-03-16T10:27:47;5.63;;;3.10;;
15946;SDS011;8072;52.554;7.966;2023-03-16T10:32:45;4.43;;;2.80;;
15946;SDS011;8072;52.554;7.966;2023-03-16T10:35:26;5.33;;;3.07;;
15946;SDS011;8072;52.554;7.966;2023-03-16T10:37:56;5.40;;;2.97;;
15946;SDS011;8072;52.554;7.966;2023-03-16T10:40:22;5.27;;;3.10;;
15946;SDS011;8072;52.554;7.966;2023-03-16T10:42:48;4.43;;;3.00;;
15946;SDS011;8072;52.554;7.966;2023-03-16T10:45:31;11.10;;;3.13;;
15946;SDS011;8072;52.554;7.966;2023-03-16T10:48:10;7.03;;;3.50;;
15946;SDS011;8072;52.554;7.966;2023-03-16T10:50:49;6.03;;;3.47;;
15946;SDS011;8072;52.554;7.966;2023-03-16T10:53:27;3.93;;;2.67;;
15946;SDS011;8072;52.554;7.966;2023-03-16T10:55:56;4.90;;;3.10;;
15946;SDS011;8072;52.554;7.966;2023-03-16T10:58:30;6.60;;;3.47;;
15946;SDS011;8072;52.554;7.966;2023-03-16T11:01:09;6.13;;;3.00;;
15946;SDS011;8072;52.554;7.966;2023-03-16T11:03:39;3.13;;;2.73;;
15946;SDS011;8072;52.554;7.966;2023-03-16T11:06:06;4.60;;;3.27;;
15946;SDS011;8072;52.554;7.966;2023-03-16T11:08:42;4.93;;;2.90;;
15946;SDS011;8072;52.554;7.966;2023-03-16T11:13:47;3.77;;;2.87;;
15946;SDS011;8072;52.554;7.966;2023-03-16T11:16:16;5.17;;;3.40;;
15946;SDS011;8072;52.554;7.966;2023-03-16T11:21:26;7.23;;;3.27;;
15946;SDS011;8072;52.554;7.966;2023-03-16T11:23:57;4.90;;;3.00;;
15946;SDS011;8072;52.554;7.966;2023-03-16T11:26:30;6.10;;;3.50;;
15946;SDS011;8072;52.554;7.966;2023-03-16T11:29:21;5.80;;;3.20;;
15946;SDS011;8072;52.554;7.966;2023-03-16T11:31:55;4.90;;;3.00;;
15946;SDS011;8072;52.554;7.966;2023-03-16T11:34:31;7.20;;;3.00;;
15946;SDS011;8072;52.554;7.966;2023-03-16T11:42:53;5.27;;;3.10;;
15946;SDS011;8072;52.554;7.966;2023-03-16T11:46:09;4.83;;;2.60;;
15946;SDS011;8072;52.554;7.966;2023-03-16T12:07:35;4.37;;;2.80;;
15946;SDS011;8072;52.554;7.966;2023-03-16T12:10:21;5.63;;;2.90;;
15946;SDS011;8072;52.554;7.966;2023-03-16T12:18:56;6.87;;;3.27;;
15946;SDS011;8072;52.554;7.966;2023-03-16T12:24:03;5.70;;;3.10;;
15946;SDS011;8072;52.554;7.966;2023-03-16T12:26:38;5.47;;;3.27;;
15946;SDS011;8072;52.554;7.966;2023-03-16T12:29:12;7.07;;;3.10;;
15946;SDS011;8072;52.554;7.966;2023-03-16T12:31:53;6.23;;;2.83;;
15946;SDS011;8072;52.554;7.966;2023-03-16T12:34:42;8.57;;;3.37;;
15946;SDS011;8072;52.554;7.966;2023-03-16T12:37:17;3.93;;;2.90;;
15946;SDS011;8072;52.554;7.966;2023-03-16T12:39:59;5.77;;;3.03;;
15946;SDS011;8072;52.554;7.966;2023-03-16T12:45:38;5.30;;;2.80;;
15946;SDS011;8072;52.554;7.966;2023-03-16T12:50:48;5.03;;;2.70;;
15946;SDS011;8072;52.554;7.966;2023-03-16T12:56:15;5.80;;;3.10;;
15946;SDS011;8072;52.554;7.966;2023-03-16T12:58:46;4.77;;;2.87;;
15946;SDS011;8072;52.554;7.966;2023-03-16T13:01:15;4.83;;;2.53;;
15946;SDS011;8072;52.554;7.966;2023-03-16T13:03:45;4.77;;;2.60;;
15946;SDS011;8072;52.554;7.966;2023-03-16T13:06:17;6.77;;;2.60;;
15946;SDS011;8072;52.554;7.966;2023-03-16T13:08:57;3.77;;;2.60;;
15946;SDS011;8072;52.554;7.966;2023-03-16T13:11:25;6.60;;;2.90;;
15946;SDS011;8072;52.554;7.966;2023-03-16T13:16:29;5.03;;;2.47;;
15946;SDS011;8072;52.554;7.966;2023-03-16T13:18:57;5.57;;;2.40;;
15946;SDS011;8072;52.554;7.966;2023-03-16T13:21:37;4.33;;;2.73;;
15946;SDS011;8072;52.554;7.966;2023-03-16T13:26:52;4.10;;;3.20;;
15946;SDS011;8072;52.554;7.966;2023-03-16T13:29:24;4.67;;;2.33;;
15946;SDS011;8072;52.554;7.966;2023-03-16T13:31:55;4.87;;;2.80;;
15946;SDS011;8072;52.554;7.966;2023-03-16T13:34:28;5.50;;;2.40;;
15946;SDS011;8072;52.554;7.966;2023-03-16T13:36:57;5.60;;;2.57;;
15946;SDS011;8072;52.554;7.966;2023-03-16T13:39:24;5.33;;;2.80;;
15946;SDS011;8072;52.554;7.966;2023-03-16T13:44:22;4.57;;;2.70;;
15946;SDS011;8072;52.554;7.966;2023-03-16T13:46:49;3.67;;;2.43;;
15946;SDS011;8072;52.554;7.966;2023-03-16T13:49:15;5.30;;;3.03;;
15946;SDS011;8072;52.554;7.966;2023-03-16T13:51:42;4.07;;;2.50;;
15946;SDS011;8072;52.554;7.966;2023-03-16T13:54:23;5.07;;;2.77;;
15946;SDS011;8072;52.554;7.966;2023-03-16T13:57:11;3.40;;;2.67;;
15946;SDS011;8072;52.554;7.966;2023-03-16T13:59:39;4.20;;;2.50;;
15946;SDS011;8072;52.554;7.966;2023-03-16T14:02:15;5.17;;;2.80;;
15946;SDS011;8072;52.554;7.966;2023-03-16T14:04:47;4.00;;;2.40;;
15946;SDS011;8072;52.554;7.966;2023-03-16T14:07:17;6.43;;;2.73;;
15946;SDS011;8072;52.554;7.966;2023-03-16T14:09:44;10.53;;;2.37;;
15946;SDS011;8072;52.554;7.966;2023-03-16T14:12:15;3.67;;;2.53;;
15946;SDS011;8072;52.554;7.966;2023-03-16T14:14:45;3.17;;;2.37;;
15946;SDS011;8072;52.554;7.966;2023-03-16T14:17:17;3.93;;;2.60;;
15946;SDS011;8072;52.554;7.966;2023-03-16T14:19:47;2.97;;;2.20;;
15946;SDS011;8072;52.554;7.966;2023-03-16T14:22:28;3.67;;;2.53;;
15946;SDS011;8072;52.554;7.966;2023-03-16T14:25:01;4.50;;;2.60;;
15946;SDS011;8072;52.554;7.966;2023-03-16T14:27:47;4.67;;;2.50;;
15946;SDS011;8072;52.554;7.966;2023-03-16T14:30:22;4.13;;;2.37;;
15946;SDS011;8072;52.554;7.966;2023-03-16T14:32:58;5.57;;;2.53;;
15946;SDS011;8072;52.554;7.966;2023-03-16T14:35:38;2.33;;;2.07;;
15946;SDS011;8072;52.554;7.966;2023-03-16T14:40:55;3.27;;;2.33;;
15946;SDS011;8072;52.554;7.966;2023-03-16T14:43:26;4.47;;;2.33;;
15946;SDS011;8072;52.554;7.966;2023-03-16T14:45:55;4.40;;;2.30;;
15946;SDS011;8072;52.554;7.966;2023-03-16T14:48:21;6.53;;;2.23;;
15946;SDS011;8072;52.554;7.966;2023-03-16T14:50:49;4.60;;;2.37;;
15946;SDS011;8072;52.554;7.966;2023-03-16T14:53:18;3.60;;;2.13;;
15946;SDS011;8072;52.554;7.966;2023-03-16T14:55:45;2.57;;;1.90;;
15946;SDS011;8072;52.554;7.966;2023-03-16T14:58:11;4.47;;;2.30;;
15946;SDS011;8072;52.554;7.966;2023-03-16T15:00:37;3.53;;;2.10;;
15946;SDS011;8072;52.554;7.966;2023-03-16T15:05:35;5.63;;;2.43;;
15946;SDS011;8072;52.554;7.966;2023-03-16T15:08:03;4.70;;;2.30;;
15946;SDS011;8072;52.554;7.966;2023-03-16T15:10:34;4.53;;;2.47;;
15946;SDS011;8072;52.554;7.966;2023-03-16T15:13:00;3.80;;;2.40;;
15946;SDS011;8072;52.554;7.966;2023-03-16T15:15:37;5.33;;;2.97;;
15946;SDS011;8072;52.554;7.966;2023-03-16T15:18:04;3.77;;;2.30;;
15946;SDS011;8072;52.554;7.966;2023-03-16T15:20:38;3.33;;;2.33;;
15946;SDS011;8072;52.554;7.966;2023-03-16T15:23:08;7.63;;;2.50;;
15946;SDS011;8072;52.554;7.966;2023-03-16T15:25:38;3.33;;;2.10;;
15946;SDS011;8072;52.554;7.966;2023-03-16T15:28:13;2.60;;;2.10;;
15946;SDS011;8072;52.554;7.966;2023-03-16T15:30:40;2.97;;;2.23;;
15946;SDS011;8072;52.554;7.966;2023-03-16T15:33:07;3.90;;;2.33;;
15946;SDS011;8072;52.554;7.966;2023-03-16T15:35:34;5.17;;;2.30;;
15946;SDS011;8072;52.554;7.966;2023-03-16T15:38:01;4.77;;;2.40;;
15946;SDS011;8072;52.554;7.966;2023-03-16T15:40:31;4.53;;;2.57;;
15946;SDS011;8072;52.554;7.966;2023-03-16T15:42:56;3.43;;;2.30;;
15946;SDS011;8072;52.554;7.966;2023-03-16T15:45:22;2.93;;;2.30;;
15946;SDS011;8072;52.554;7.966;2023-03-16T15:47:50;3.67;;;2.60;;
15946;SDS011;8072;52.554;7.966;2023-03-16T15:50:17;4.57;;;2.47;;
15946;SDS011;8072;52.554;7.966;2023-03-16T15:52:49;5.10;;;2.03;;
15946;SDS011;8072;52.554;7.966;2023-03-16T15:55:20;3.87;;;2.00;;
15946;SDS011;8072;52.554;7.966;2023-03-16T15:57:50;4.23;;;2.20;;
15946;SDS011;8072;52.554;7.966;2023-03-16T16:00:27;2.73;;;2.10;;
15946;SDS011;8072;52.554;7.966;2023-03-16T16:02:59;3.27;;;2.17;;
15946;SDS011;8072;52.554;7.966;2023-03-16T16:05:26;4.33;;;2.47;;
15946;SDS011;8072;52.554;7.966;2023-03-16T16:07:52;3.17;;;2.40;;
15946;SDS011;8072;52.554;7.966;2023-03-16T16:10:18;4.17;;;2.40;;
15946;SDS011;8072;52.554;7.966;2023-03-16T16:12:45;2.63;;;2.27;;
15946;SDS011;8072;52.554;7.966;2023-03-16T16:17:48;4.53;;;2.30;;
15946;SDS011;8072;52.554;7.966;2023-03-16T16:20:18;4.07;;;2.30;;
15946;SDS011;8072;52.554;7.966;2023-03-16T16:22:46;4.27;;;2.33;;
15946;SDS011;8072;52.554;7.966;2023-03-16T16:25:13;4.00;;;2.20;;
15946;SDS011;8072;52.554;7.966;2023-03-16T16:27:40;2.90;;;2.30;;
15946;SDS011;8072;52.554;7.966;2023-03-16T16:30:25;3.77;;;2.47;;
15946;SDS011;8072;52.554;7.966;2023-03-16T16:32:53;6.43;;;2.50;;
15946;SDS011;8072;52.554;7.966;2023-03-16T16:35:22;3.03;;;2.17;;
15946;SDS011;8072;52.554;7.966;2023-03-16T16:37:52;3.10;;;2.20;;
15946;SDS011;8072;52.554;7.966;2023-03-16T16:40:19;3.23;;;2.10;;
15946;SDS011;8072;52.554;7.966;2023-03-16T16:42:48;2.77;;;2.20;;